Huvudsida
METAR-TAF:

METAR-TAF

Flygplatser :

Juanda International Airport

Gerbangkertosusila, Indonesien

latitud: 07-22-47S, longitud: 112-47-13E, höjd: 3 m

Aktuellt väderrapport

Denna rapport gjordes för 46 minuter sedan, klockan 19:30 UTC
Vind 7 kt från väst/sydväst
Temperatur 27°C
Fuktighet 94%
Tryck 1009 hPa
Sikt: 4000 m
Få moln på en höjd av 2000 ft
torrdis,

METAR: WARR 221930Z 24007KT 4000 HZ FEW020 27/26 Q1009 NOSIG

Tid: 03:16 (20:16 UTC)

Väderprognos

Denna rapport gjordes för 3 timmar och 16 minuter sedan, klockan 17:00 UTC
Prognos gäller från 22 kl. 18 UTC till 23 kl. 18 UTC
Vind 5 kt från väst
Sikt: 7000 m
Spridda moln på en höjd av 2000 ft
Blir
från 22 kl. 18 UTC till 22 kl. 20 UTC
Sikt: 4000 m
torrdis
Blir
från 23 kl. 00 UTC till 23 kl. 02 UTC
Sikt 10 km eller mer

TAF: WARR 221700Z 2218/2318 26005KT 7000 SCT020 BECMG 2218/2220 4000 HZ BECMG 2300/2302 9999 NSW

Aktuella väderrapporter och prognoser från 4000 flygplatser (METAR- och TAF-rapporter).

De tillgängliga stationerna syns som gula och röda prickar på kartan.

För musen över prickarna för att se namnen på stationerna.

Klicka sedan för att få väderrapporter och prognoser.

För att ändra kartan: Klicka på de gröna knapparna med ett svart kors på för att zooma in; den gröna knappen med ett streck på för att zooma ut; eller på de gröna pilarna för angränsande kartor.


METAR-TAF: